Breckenridge, CO (80424)

9:58 AM MDT on August 04, 2015 (GMT -0600)
Downtown | | Change Station
CLOSE
Current Station
Personal Weather Station
Location: Breckenridge, CO
Elevation: 9590 ft
Nearby Weather Stations

Elev 9590 ft 39.48 °N, 106.05 °W | Updated 10 minutes ago

Clear
Clear
60.3 °F
Feels Like 60.3 °F
N
7.0
Wind Variable Wind from NE
Gusts 22.0 mph

Today
High -- | Low -- °F
--% Chance of Precip.
Yesterday
High -- | Low -- °F
Precip. -- in
6:06 AM 8:13 PM
Waning Gibbous, 76% visible
Pressure 29.93 in
Visibility 10.0 miles
Clouds Few 5500 ft
Dew Point 36 °F
Humidity 40%
Rainfall 0.00 in
Snow Depth Not available.
UV 6 out of 12
Pollen 7.60 out of 12
Air Quality Not available.
Flu Activity Not available.
METAR KLXV 041553Z AUTO 34013G21KT 10SM FEW055 16/02 A3043 RMK AO2 SLP133 T01560022

More Conditions Fewer Conditions

Pressure 29.93 in
Visibility 10.0 miles
Clouds Few 5500 ft
Dew Point 36 °F
Humidity 40%
Rainfall 0.00 in
Snow Depth Not available.
UV 6 out of 12
Pollen 7.60 out of 12
Air Quality Not available.
Flu Activity Not available.
METAR KLXV 041553Z AUTO 34013G21KT 10SM FEW055 16/02 A3043 RMK AO2 SLP133 T01560022

More Conditions Fewer Conditions

Nowcast | as of 8:49 am MDT on August 4, 2015

West winds at 20 to 40 mph will continue above 10 thousand feet in the Front Range this morning. Gusts will be as high as 60 mph above timberline. Speeds will decrease this afternoon.

×

10-Day Weather Forecast

×

Almanac

Astronomy

Aug. 04, 2015 Rise Set
Actual Time
Civil Twilight
Nautical Twilight
Astronomical Twilight
Moon
Length of Visible Light
Length of Day
Tomorrow will be .
, % of the Moon is Illuminated

Today's Extremes

State Highs State Lows

Community

WunderPhotos

Upload Photos

1,843,909 photos uploaded!

WunderBlogs® & News

Nearby

Air Quality

  Air Quality AQ Index Pollutant
Not available.

Snow Depth

Station Depth Elevation

Earthquake Activity

City Distance Mag. Time & Date
Minimum magnitude displayed is 2.5.

Coastal Water Temperatures

Place Temperature

Stations

Nearby Weather Stations

Station Location Temp. Windchill Dew Point Humidity Wind Precip. Elev Updated Type